Aviation Digital Data Service (ADDS)

Output produced by METARs form (2339 UTC 29 July 2016)
found at http://aviationweather.gov/adds/metars/
 
KROA 291732Z 2918/3018 29007KT P6SM FEW040 BKN060 
     FM292200 28005KT P6SM VCSH BKN050 
     FM300400 VRB03KT P6SM SCT050 BKN100 
     FM301600 25007KT P6SM SCT030 BKN100